sensor_id;sensor_type;location;lat;lon;timestamp;P1;durP1;ratioP1;P2;durP2;ratioP2
20711;SDS011;10517;50.742;4.224;2023-04-24T00:00:34;10.07;;;5.87;;
20711;SDS011;10517;50.742;4.224;2023-04-24T00:03:00;11.93;;;5.47;;
20711;SDS011;10517;50.742;4.224;2023-04-24T00:05:28;14.67;;;5.90;;
20711;SDS011;10517;50.742;4.224;2023-04-24T00:07:54;13.67;;;5.67;;
20711;SDS011;10517;50.742;4.224;2023-04-24T00:10:20;14.73;;;5.80;;
20711;SDS011;10517;50.742;4.224;2023-04-24T00:12:46;10.40;;;5.57;;
20711;SDS011;10517;50.742;4.224;2023-04-24T00:15:11;12.43;;;5.40;;
20711;SDS011;10517;50.742;4.224;2023-04-24T00:17:37;15.07;;;4.97;;
20711;SDS011;10517;50.742;4.224;2023-04-24T00:20:03;11.50;;;6.67;;
20711;SDS011;10517;50.742;4.224;2023-04-24T00:22:31;13.63;;;5.80;;
20711;SDS011;10517;50.742;4.224;2023-04-24T00:24:57;18.53;;;5.73;;
20711;SDS011;10517;50.742;4.224;2023-04-24T00:27:23;14.97;;;6.50;;
20711;SDS011;10517;50.742;4.224;2023-04-24T00:29:48;12.90;;;5.63;;
20711;SDS011;10517;50.742;4.224;2023-04-24T00:32:14;13.20;;;5.77;;
20711;SDS011;10517;50.742;4.224;2023-04-24T00:34:40;14.17;;;6.47;;
20711;SDS011;10517;50.742;4.224;2023-04-24T00:37:06;9.63;;;4.97;;
20711;SDS011;10517;50.742;4.224;2023-04-24T00:39:32;16.13;;;6.50;;
20711;SDS011;10517;50.742;4.224;2023-04-24T00:41:58;14.13;;;6.07;;
20711;SDS011;10517;50.742;4.224;2023-04-24T00:44:24;13.30;;;6.33;;
20711;SDS011;10517;50.742;4.224;2023-04-24T00:46:50;11.33;;;5.57;;
20711;SDS011;10517;50.742;4.224;2023-04-24T00:49:19;14.50;;;5.67;;
20711;SDS011;10517;50.742;4.224;2023-04-24T00:51:48;16.57;;;6.77;;
20711;SDS011;10517;50.742;4.224;2023-04-24T00:54:16;9.17;;;6.23;;
20711;SDS011;10517;50.742;4.224;2023-04-24T00:56:42;13.43;;;6.37;;
20711;SDS011;10517;50.742;4.224;2023-04-24T00:59:09;12.90;;;6.00;;
20711;SDS011;10517;50.742;4.224;2023-04-24T01:01:36;13.37;;;6.83;;
20711;SDS011;10517;50.742;4.224;2023-04-24T01:04:02;11.57;;;6.40;;
20711;SDS011;10517;50.742;4.224;2023-04-24T01:06:28;10.87;;;5.93;;
20711;SDS011;10517;50.742;4.224;2023-04-24T01:08:56;16.17;;;6.03;;
20711;SDS011;10517;50.742;4.224;2023-04-24T01:11:23;12.23;;;5.57;;
20711;SDS011;10517;50.742;4.224;2023-04-24T01:13:49;10.00;;;5.60;;
20711;SDS011;10517;50.742;4.224;2023-04-24T01:16:15;12.83;;;6.00;;
20711;SDS011;10517;50.742;4.224;2023-04-24T01:18:42;10.30;;;5.37;;
20711;SDS011;10517;50.742;4.224;2023-04-24T01:21:08;10.70;;;6.43;;
20711;SDS011;10517;50.742;4.224;2023-04-24T01:23:37;9.70;;;5.70;;
20711;SDS011;10517;50.742;4.224;2023-04-24T01:26:03;12.27;;;6.60;;
20711;SDS011;10517;50.742;4.224;2023-04-24T01:28:29;15.20;;;7.07;;
20711;SDS011;10517;50.742;4.224;2023-04-24T01:30:55;10.47;;;5.63;;
20711;SDS011;10517;50.742;4.224;2023-04-24T01:33:21;10.60;;;6.03;;
20711;SDS011;10517;50.742;4.224;2023-04-24T01:35:47;13.07;;;6.23;;
20711;SDS011;10517;50.742;4.224;2023-04-24T01:38:13;13.30;;;7.00;;
20711;SDS011;10517;50.742;4.224;2023-04-24T01:40:39;15.60;;;6.90;;
20711;SDS011;10517;50.742;4.224;2023-04-24T01:43:05;17.03;;;7.03;;
20711;SDS011;10517;50.742;4.224;2023-04-24T01:45:31;14.90;;;6.20;;
20711;SDS011;10517;50.742;4.224;2023-04-24T01:47:56;18.77;;;7.67;;
20711;SDS011;10517;50.742;4.224;2023-04-24T01:50:22;17.37;;;7.37;;
20711;SDS011;10517;50.742;4.224;2023-04-24T01:52:48;13.93;;;7.30;;
20711;SDS011;10517;50.742;4.224;2023-04-24T01:55:14;14.40;;;7.20;;
20711;SDS011;10517;50.742;4.224;2023-04-24T01:57:39;15.27;;;7.03;;
20711;SDS011;10517;50.742;4.224;2023-04-24T02:00:05;17.00;;;8.17;;
20711;SDS011;10517;50.742;4.224;2023-04-24T02:02:32;12.83;;;7.03;;
20711;SDS011;10517;50.742;4.224;2023-04-24T02:04:58;21.17;;;7.77;;
20711;SDS011;10517;50.742;4.224;2023-04-24T02:07:24;14.17;;;6.97;;
20711;SDS011;10517;50.742;4.224;2023-04-24T02:09:50;13.03;;;7.20;;
20711;SDS011;10517;50.742;4.224;2023-04-24T02:12:15;12.73;;;7.77;;
20711;SDS011;10517;50.742;4.224;2023-04-24T02:14:42;15.93;;;7.23;;
20711;SDS011;10517;50.742;4.224;2023-04-24T02:17:08;14.80;;;7.50;;
20711;SDS011;10517;50.742;4.224;2023-04-24T02:19:34;14.60;;;6.97;;
20711;SDS011;10517;50.742;4.224;2023-04-24T02:21:59;15.10;;;7.27;;
20711;SDS011;10517;50.742;4.224;2023-04-24T02:24:25;16.07;;;7.13;;
20711;SDS011;10517;50.742;4.224;2023-04-24T02:26:51;16.87;;;5.83;;
20711;SDS011;10517;50.742;4.224;2023-04-24T02:29:16;15.10;;;7.57;;
20711;SDS011;10517;50.742;4.224;2023-04-24T02:31:42;13.13;;;6.33;;
20711;SDS011;10517;50.742;4.224;2023-04-24T02:34:08;10.83;;;6.37;;
20711;SDS011;10517;50.742;4.224;2023-04-24T02:36:34;9.07;;;5.60;;
20711;SDS011;10517;50.742;4.224;2023-04-24T02:39:00;11.70;;;5.87;;
20711;SDS011;10517;50.742;4.224;2023-04-24T02:41:26;8.43;;;4.87;;
20711;SDS011;10517;50.742;4.224;2023-04-24T02:43:56;15.83;;;6.10;;
20711;SDS011;10517;50.742;4.224;2023-04-24T02:46:22;12.67;;;6.07;;
20711;SDS011;10517;50.742;4.224;2023-04-24T02:48:48;18.90;;;5.47;;
20711;SDS011;10517;50.742;4.224;2023-04-24T02:51:14;10.00;;;4.33;;
20711;SDS011;10517;50.742;4.224;2023-04-24T02:53:39;13.20;;;5.10;;
20711;SDS011;10517;50.742;4.224;2023-04-24T02:56:05;9.27;;;5.57;;
20711;SDS011;10517;50.742;4.224;2023-04-24T02:58:31;8.20;;;4.30;;
20711;SDS011;10517;50.742;4.224;2023-04-24T03:00:56;13.40;;;4.77;;
20711;SDS011;10517;50.742;4.224;2023-04-24T03:03:22;10.33;;;4.57;;
20711;SDS011;10517;50.742;4.224;2023-04-24T03:05:48;7.80;;;5.17;;
20711;SDS011;10517;50.742;4.224;2023-04-24T03:08:14;7.90;;;5.20;;
20711;SDS011;10517;50.742;4.224;2023-04-24T03:10:40;15.23;;;5.27;;
20711;SDS011;10517;50.742;4.224;2023-04-24T03:13:05;15.77;;;5.20;;
20711;SDS011;10517;50.742;4.224;2023-04-24T03:15:31;12.37;;;5.40;;
20711;SDS011;10517;50.742;4.224;2023-04-24T03:17:57;12.70;;;6.27;;
20711;SDS011;10517;50.742;4.224;2023-04-24T03:20:22;9.53;;;5.93;;
20711;SDS011;10517;50.742;4.224;2023-04-24T03:22:48;13.10;;;6.87;;
20711;SDS011;10517;50.742;4.224;2023-04-24T03:25:14;13.87;;;5.70;;
20711;SDS011;10517;50.742;4.224;2023-04-24T03:27:40;9.73;;;5.23;;
20711;SDS011;10517;50.742;4.224;2023-04-24T03:30:06;11.10;;;5.87;;
20711;SDS011;10517;50.742;4.224;2023-04-24T03:32:32;11.63;;;6.30;;
20711;SDS011;10517;50.742;4.224;2023-04-24T03:34:58;11.80;;;6.43;;
20711;SDS011;10517;50.742;4.224;2023-04-24T03:37:23;11.20;;;5.73;;
20711;SDS011;10517;50.742;4.224;2023-04-24T03:39:50;9.00;;;5.20;;
20711;SDS011;10517;50.742;4.224;2023-04-24T03:42:16;13.40;;;4.70;;
20711;SDS011;10517;50.742;4.224;2023-04-24T03:44:41;7.50;;;4.87;;
20711;SDS011;10517;50.742;4.224;2023-04-24T03:47:07;11.50;;;4.97;;
20711;SDS011;10517;50.742;4.224;2023-04-24T03:49:32;6.37;;;4.63;;
20711;SDS011;10517;50.742;4.224;2023-04-24T03:51:58;5.33;;;3.67;;
20711;SDS011;10517;50.742;4.224;2023-04-24T03:54:24;8.27;;;4.60;;
20711;SDS011;10517;50.742;4.224;2023-04-24T03:56:49;10.57;;;4.43;;
20711;SDS011;10517;50.742;4.224;2023-04-24T03:59:15;8.63;;;4.93;;
20711;SDS011;10517;50.742;4.224;2023-04-24T04:01:41;7.97;;;3.73;;
20711;SDS011;10517;50.742;4.224;2023-04-24T04:04:07;9.13;;;4.80;;
20711;SDS011;10517;50.742;4.224;2023-04-24T04:06:33;13.43;;;5.03;;
20711;SDS011;10517;50.742;4.224;2023-04-24T04:08:59;6.67;;;4.57;;
20711;SDS011;10517;50.742;4.224;2023-04-24T04:11:25;7.97;;;4.03;;
20711;SDS011;10517;50.742;4.224;2023-04-24T04:13:51;7.77;;;4.33;;
20711;SDS011;10517;50.742;4.224;2023-04-24T04:16:17;6.77;;;4.20;;
20711;SDS011;10517;50.742;4.224;2023-04-24T04:18:43;11.30;;;4.37;;
20711;SDS011;10517;50.742;4.224;2023-04-24T04:21:09;7.10;;;4.73;;
20711;SDS011;10517;50.742;4.224;2023-04-24T04:23:35;13.23;;;4.23;;
20711;SDS011;10517;50.742;4.224;2023-04-24T04:26:01;7.90;;;4.40;;
20711;SDS011;10517;50.742;4.224;2023-04-24T04:28:28;7.73;;;4.17;;
20711;SDS011;10517;50.742;4.224;2023-04-24T04:30:55;6.27;;;2.93;;
20711;SDS011;10517;50.742;4.224;2023-04-24T04:33:22;6.63;;;3.23;;
20711;SDS011;10517;50.742;4.224;2023-04-24T04:35:48;5.13;;;3.53;;
20711;SDS011;10517;50.742;4.224;2023-04-24T04:38:15;4.90;;;3.07;;
20711;SDS011;10517;50.742;4.224;2023-04-24T04:40:42;5.27;;;3.30;;
20711;SDS011;10517;50.742;4.224;2023-04-24T04:43:07;7.87;;;4.70;;
20711;SDS011;10517;50.742;4.224;2023-04-24T04:45:33;8.30;;;4.47;;
20711;SDS011;10517;50.742;4.224;2023-04-24T04:47:59;7.03;;;4.00;;
20711;SDS011;10517;50.742;4.224;2023-04-24T04:50:26;12.10;;;4.57;;
20711;SDS011;10517;50.742;4.224;2023-04-24T04:52:52;7.40;;;4.57;;
20711;SDS011;10517;50.742;4.224;2023-04-24T04:55:18;7.53;;;4.43;;
20711;SDS011;10517;50.742;4.224;2023-04-24T04:57:46;9.37;;;5.07;;
20711;SDS011;10517;50.742;4.224;2023-04-24T05:00:12;14.57;;;6.50;;
20711;SDS011;10517;50.742;4.224;2023-04-24T05:02:38;12.87;;;6.87;;
20711;SDS011;10517;50.742;4.224;2023-04-24T05:05:05;12.03;;;6.70;;
20711;SDS011;10517;50.742;4.224;2023-04-24T05:07:31;10.93;;;6.73;;
20711;SDS011;10517;50.742;4.224;2023-04-24T05:09:57;17.93;;;6.70;;
20711;SDS011;10517;50.742;4.224;2023-04-24T05:12:22;15.93;;;6.87;;
20711;SDS011;10517;50.742;4.224;2023-04-24T05:14:48;12.63;;;6.37;;
20711;SDS011;10517;50.742;4.224;2023-04-24T05:17:14;15.57;;;6.80;;
20711;SDS011;10517;50.742;4.224;2023-04-24T05:19:40;14.97;;;6.67;;
20711;SDS011;10517;50.742;4.224;2023-04-24T05:22:06;10.33;;;6.00;;
20711;SDS011;10517;50.742;4.224;2023-04-24T05:24:35;14.93;;;6.27;;
20711;SDS011;10517;50.742;4.224;2023-04-24T05:27:01;11.80;;;6.50;;
20711;SDS011;10517;50.742;4.224;2023-04-24T05:29:28;16.77;;;7.60;;
20711;SDS011;10517;50.742;4.224;2023-04-24T05:31:55;17.43;;;7.10;;
20711;SDS011;10517;50.742;4.224;2023-04-24T05:34:21;10.23;;;6.20;;
20711;SDS011;10517;50.742;4.224;2023-04-24T05:36:47;15.47;;;7.03;;
20711;SDS011;10517;50.742;4.224;2023-04-24T05:39:13;16.57;;;7.73;;
20711;SDS011;10517;50.742;4.224;2023-04-24T05:41:40;13.73;;;6.43;;
20711;SDS011;10517;50.742;4.224;2023-04-24T05:44:05;13.20;;;6.43;;
20711;SDS011;10517;50.742;4.224;2023-04-24T05:46:31;14.30;;;5.97;;
20711;SDS011;10517;50.742;4.224;2023-04-24T05:48:57;13.57;;;6.33;;
20711;SDS011;10517;50.742;4.224;2023-04-24T05:51:23;16.03;;;7.50;;
20711;SDS011;10517;50.742;4.224;2023-04-24T05:53:48;13.03;;;6.53;;
20711;SDS011;10517;50.742;4.224;2023-04-24T05:56:14;14.63;;;6.73;;
20711;SDS011;10517;50.742;4.224;2023-04-24T05:58:40;13.07;;;6.00;;
20711;SDS011;10517;50.742;4.224;2023-04-24T06:01:06;10.37;;;5.77;;
20711;SDS011;10517;50.742;4.224;2023-04-24T06:03:32;21.73;;;6.33;;
20711;SDS011;10517;50.742;4.224;2023-04-24T06:05:57;14.17;;;6.10;;
20711;SDS011;10517;50.742;4.224;2023-04-24T06:08:23;13.53;;;5.80;;
20711;SDS011;10517;50.742;4.224;2023-04-24T06:10:49;12.37;;;5.93;;
20711;SDS011;10517;50.742;4.224;2023-04-24T06:13:15;15.87;;;7.00;;
20711;SDS011;10517;50.742;4.224;2023-04-24T06:15:42;13.07;;;7.57;;
20711;SDS011;10517;50.742;4.224;2023-04-24T06:18:08;15.57;;;7.77;;
20711;SDS011;10517;50.742;4.224;2023-04-24T06:20:35;15.53;;;7.63;;
20711;SDS011;10517;50.742;4.224;2023-04-24T06:23:01;16.93;;;7.80;;
20711;SDS011;10517;50.742;4.224;2023-04-24T06:25:27;19.00;;;8.47;;
20711;SDS011;10517;50.742;4.224;2023-04-24T06:27:53;19.80;;;8.00;;
20711;SDS011;10517;50.742;4.224;2023-04-24T06:30:20;14.07;;;7.47;;
20711;SDS011;10517;50.742;4.224;2023-04-24T06:32:45;21.70;;;8.17;;
20711;SDS011;10517;50.742;4.224;2023-04-24T06:35:11;22.43;;;9.17;;
20711;SDS011;10517;50.742;4.224;2023-04-24T06:37:38;16.43;;;8.17;;
20711;SDS011;10517;50.742;4.224;2023-04-24T06:40:05;17.07;;;8.67;;
20711;SDS011;10517;50.742;4.224;2023-04-24T06:42:31;18.67;;;8.43;;
20711;SDS011;10517;50.742;4.224;2023-04-24T06:44:57;13.67;;;8.33;;
20711;SDS011;10517;50.742;4.224;2023-04-24T06:47:22;15.83;;;8.20;;
20711;SDS011;10517;50.742;4.224;2023-04-24T06:49:48;21.40;;;8.27;;
20711;SDS011;10517;50.742;4.224;2023-04-24T06:52:16;19.10;;;8.63;;
20711;SDS011;10517;50.742;4.224;2023-04-24T06:54:41;21.07;;;7.97;;
20711;SDS011;10517;50.742;4.224;2023-04-24T06:57:07;22.27;;;8.30;;
20711;SDS011;10517;50.742;4.224;2023-04-24T06:59:33;11.80;;;7.47;;
20711;SDS011;10517;50.742;4.224;2023-04-24T07:01:59;19.53;;;8.23;;
20711;SDS011;10517;50.742;4.224;2023-04-24T07:04:25;19.70;;;7.93;;
20711;SDS011;10517;50.742;4.224;2023-04-24T07:06:51;14.50;;;8.37;;
20711;SDS011;10517;50.742;4.224;2023-04-24T07:09:19;16.47;;;7.57;;
20711;SDS011;10517;50.742;4.224;2023-04-24T07:11:45;19.07;;;8.00;;
20711;SDS011;10517;50.742;4.224;2023-04-24T07:14:11;20.80;;;9.20;;
20711;SDS011;10517;50.742;4.224;2023-04-24T07:16:37;21.07;;;8.73;;
20711;SDS011;10517;50.742;4.224;2023-04-24T07:19:03;15.13;;;7.67;;
20711;SDS011;10517;50.742;4.224;2023-04-24T07:21:29;20.23;;;8.30;;
20711;SDS011;10517;50.742;4.224;2023-04-24T07:23:56;16.20;;;6.70;;
20711;SDS011;10517;50.742;4.224;2023-04-24T07:26:23;13.67;;;7.93;;
20711;SDS011;10517;50.742;4.224;2023-04-24T07:28:48;17.97;;;7.63;;
20711;SDS011;10517;50.742;4.224;2023-04-24T07:31:14;14.13;;;7.13;;
20711;SDS011;10517;50.742;4.224;2023-04-24T07:33:40;13.93;;;6.53;;
20711;SDS011;10517;50.742;4.224;2023-04-24T07:36:06;20.00;;;8.27;;
20711;SDS011;10517;50.742;4.224;2023-04-24T07:38:31;14.93;;;7.10;;
20711;SDS011;10517;50.742;4.224;2023-04-24T07:40:57;13.27;;;6.97;;
20711;SDS011;10517;50.742;4.224;2023-04-24T07:43:23;14.03;;;7.60;;
20711;SDS011;10517;50.742;4.224;2023-04-24T07:45:49;16.53;;;7.53;;
20711;SDS011;10517;50.742;4.224;2023-04-24T07:48:15;16.83;;;6.93;;
20711;SDS011;10517;50.742;4.224;2023-04-24T07:50:42;13.77;;;7.03;;
20711;SDS011;10517;50.742;4.224;2023-04-24T07:53:08;11.43;;;5.80;;
20711;SDS011;10517;50.742;4.224;2023-04-24T07:55:34;11.27;;;6.60;;
20711;SDS011;10517;50.742;4.224;2023-04-24T07:58:00;15.93;;;8.43;;
20711;SDS011;10517;50.742;4.224;2023-04-24T08:00:25;17.60;;;6.77;;
20711;SDS011;10517;50.742;4.224;2023-04-24T08:02:51;15.20;;;7.00;;
20711;SDS011;10517;50.742;4.224;2023-04-24T08:05:16;12.40;;;6.73;;
20711;SDS011;10517;50.742;4.224;2023-04-24T08:07:42;14.70;;;5.97;;
20711;SDS011;10517;50.742;4.224;2023-04-24T08:10:09;11.83;;;6.60;;
20711;SDS011;10517;50.742;4.224;2023-04-24T08:12:36;16.77;;;6.50;;
20711;SDS011;10517;50.742;4.224;2023-04-24T08:15:02;13.57;;;6.37;;
20711;SDS011;10517;50.742;4.224;2023-04-24T08:17:28;10.37;;;5.27;;
20711;SDS011;10517;50.742;4.224;2023-04-24T08:19:54;10.83;;;6.27;;
20711;SDS011;10517;50.742;4.224;2023-04-24T08:22:26;17.00;;;6.23;;
20711;SDS011;10517;50.742;4.224;2023-04-24T08:24:52;17.77;;;6.87;;
20711;SDS011;10517;50.742;4.224;2023-04-24T08:27:18;10.93;;;5.90;;
20711;SDS011;10517;50.742;4.224;2023-04-24T08:29:44;11.23;;;6.00;;
20711;SDS011;10517;50.742;4.224;2023-04-24T08:32:10;16.80;;;6.13;;
20711;SDS011;10517;50.742;4.224;2023-04-24T08:34:35;10.10;;;5.33;;
20711;SDS011;10517;50.742;4.224;2023-04-24T08:37:01;10.70;;;4.67;;
20711;SDS011;10517;50.742;4.224;2023-04-24T08:39:27;14.90;;;5.10;;
20711;SDS011;10517;50.742;4.224;2023-04-24T08:41:55;6.10;;;4.33;;
20711;SDS011;10517;50.742;4.224;2023-04-24T08:44:21;12.57;;;4.17;;
20711;SDS011;10517;50.742;4.224;2023-04-24T08:46:49;18.77;;;5.03;;
20711;SDS011;10517;50.742;4.224;2023-04-24T08:49:17;17.67;;;4.50;;
20711;SDS011;10517;50.742;4.224;2023-04-24T08:51:43;10.83;;;3.50;;
20711;SDS011;10517;50.742;4.224;2023-04-24T08:54:10;10.50;;;4.57;;
20711;SDS011;10517;50.742;4.224;2023-04-24T08:56:37;9.80;;;4.20;;
20711;SDS011;10517;50.742;4.224;2023-04-24T08:59:05;13.73;;;5.13;;
20711;SDS011;10517;50.742;4.224;2023-04-24T09:01:32;10.60;;;3.23;;
20711;SDS011;10517;50.742;4.224;2023-04-24T09:04:00;8.27;;;2.77;;
20711;SDS011;10517;50.742;4.224;2023-04-24T09:06:29;6.93;;;3.07;;
20711;SDS011;10517;50.742;4.224;2023-04-24T09:08:57;9.50;;;3.70;;
20711;SDS011;10517;50.742;4.224;2023-04-24T09:11:25;4.97;;;2.90;;
20711;SDS011;10517;50.742;4.224;2023-04-24T09:13:52;13.30;;;4.00;;
20711;SDS011;10517;50.742;4.224;2023-04-24T09:16:19;8.87;;;3.93;;
20711;SDS011;10517;50.742;4.224;2023-04-24T09:18:45;7.87;;;2.93;;
20711;SDS011;10517;50.742;4.224;2023-04-24T09:21:11;8.00;;;3.77;;
20711;SDS011;10517;50.742;4.224;2023-04-24T09:23:37;8.57;;;3.80;;
20711;SDS011;10517;50.742;4.224;2023-04-24T09:26:04;11.70;;;4.63;;
20711;SDS011;10517;50.742;4.224;2023-04-24T09:28:35;7.55;;;3.53;;
20711;SDS011;10517;50.742;4.224;2023-04-24T09:31:20;13.67;;;4.60;;
20711;SDS011;10517;50.742;4.224;2023-04-24T09:36:19;4.53;;;1.83;;
20711;SDS011;10517;50.742;4.224;2023-04-24T09:38:53;5.47;;;2.13;;
20711;SDS011;10517;50.742;4.224;2023-04-24T09:41:22;4.97;;;2.20;;
20711;SDS011;10517;50.742;4.224;2023-04-24T09:43:48;6.47;;;1.92;;
20711;SDS011;10517;50.742;4.224;2023-04-24T09:46:14;6.27;;;2.20;;
20711;SDS011;10517;50.742;4.224;2023-04-24T09:48:43;5.45;;;2.20;;
20711;SDS011;10517;50.742;4.224;2023-04-24T09:51:09;7.93;;;3.40;;
20711;SDS011;10517;50.742;4.224;2023-04-24T09:53:37;5.13;;;1.90;;
20711;SDS011;10517;50.742;4.224;2023-04-24T09:56:08;9.55;;;2.30;;
20711;SDS011;10517;50.742;4.224;2023-04-24T09:58:38;4.32;;;2.35;;
20711;SDS011;10517;50.742;4.224;2023-04-24T10:01:04;4.35;;;1.90;;
20711;SDS011;10517;50.742;4.224;2023-04-24T10:03:31;5.75;;;2.03;;
20711;SDS011;10517;50.742;4.224;2023-04-24T10:06:03;5.13;;;2.60;;
20711;SDS011;10517;50.742;4.224;2023-04-24T10:08:36;6.38;;;2.80;;
20711;SDS011;10517;50.742;4.224;2023-04-24T10:11:04;2.80;;;2.10;;
20711;SDS011;10517;50.742;4.224;2023-04-24T10:13:31;5.15;;;2.60;;
20711;SDS011;10517;50.742;4.224;2023-04-24T10:15:57;7.28;;;3.05;;
20711;SDS011;10517;50.742;4.224;2023-04-24T10:18:25;11.07;;;2.70;;
20711;SDS011;10517;50.742;4.224;2023-04-24T10:20:52;11.15;;;3.17;;
20711;SDS011;10517;50.742;4.224;2023-04-24T10:23:19;8.73;;;3.30;;
20711;SDS011;10517;50.742;4.224;2023-04-24T10:25:45;4.93;;;2.80;;
20711;SDS011;10517;50.742;4.224;2023-04-24T10:28:12;6.90;;;3.00;;
20711;SDS011;10517;50.742;4.224;2023-04-24T10:30:38;11.68;;;3.22;;
20711;SDS011;10517;50.742;4.224;2023-04-24T10:33:08;4.25;;;2.92;;
20711;SDS011;10517;50.742;4.224;2023-04-24T10:35:34;4.90;;;2.97;;
20711;SDS011;10517;50.742;4.224;2023-04-24T10:38:08;5.75;;;2.72;;
20711;SDS011;10517;50.742;4.224;2023-04-24T10:40:37;6.65;;;3.28;;
20711;SDS011;10517;50.742;4.224;2023-04-24T10:43:06;11.15;;;3.92;;
20711;SDS011;10517;50.742;4.224;2023-04-24T10:45:34;4.80;;;3.10;;
20711;SDS011;10517;50.742;4.224;2023-04-24T10:53:17;6.93;;;3.85;;
20711;SDS011;10517;50.742;4.224;2023-04-24T10:55:49;7.72;;;4.20;;
20711;SDS011;10517;50.742;4.224;2023-04-24T10:58:17;9.48;;;4.50;;
20711;SDS011;10517;50.742;4.224;2023-04-24T11:00:57;10.63;;;3.95;;
20711;SDS011;10517;50.742;4.224;2023-04-24T11:03:28;7.72;;;2.70;;
20711;SDS011;10517;50.742;4.224;2023-04-24T11:08:44;6.32;;;3.83;;
20711;SDS011;10517;50.742;4.224;2023-04-24T11:11:14;10.73;;;4.13;;
20711;SDS011;10517;50.742;4.224;2023-04-24T11:21:47;8.45;;;4.65;;
20711;SDS011;10517;50.742;4.224;2023-04-24T11:27:14;5.70;;;3.85;;
20711;SDS011;10517;50.742;4.224;2023-04-24T11:29:42;11.02;;;5.43;;
20711;SDS011;10517;50.742;4.224;2023-04-24T11:37:48;10.07;;;4.63;;
20711;SDS011;10517;50.742;4.224;2023-04-24T11:40:14;10.77;;;5.72;;
20711;SDS011;10517;50.742;4.224;2023-04-24T11:42:42;8.15;;;4.85;;
20711;SDS011;10517;50.742;4.224;2023-04-24T11:45:10;13.25;;;5.65;;
20711;SDS011;10517;50.742;4.224;2023-04-24T11:47:37;7.30;;;4.63;;
20711;SDS011;10517;50.742;4.224;2023-04-24T11:50:04;9.60;;;4.32;;
20711;SDS011;10517;50.742;4.224;2023-04-24T11:52:33;6.57;;;4.57;;
20711;SDS011;10517;50.742;4.224;2023-04-24T11:55:01;7.68;;;4.65;;
20711;SDS011;10517;50.742;4.224;2023-04-24T11:57:28;5.38;;;3.90;;
20711;SDS011;10517;50.742;4.224;2023-04-24T11:59:58;8.18;;;4.53;;
20711;SDS011;10517;50.742;4.224;2023-04-24T12:02:25;15.27;;;3.45;;
20711;SDS011;10517;50.742;4.224;2023-04-24T12:04:55;10.82;;;4.47;;
20711;SDS011;10517;50.742;4.224;2023-04-24T12:07:21;6.78;;;4.95;;
20711;SDS011;10517;50.742;4.224;2023-04-24T12:09:50;7.30;;;4.28;;
20711;SDS011;10517;50.742;4.224;2023-04-24T12:12:22;10.57;;;4.50;;
20711;SDS011;10517;50.742;4.224;2023-04-24T12:14:55;9.27;;;4.30;;
20711;SDS011;10517;50.742;4.224;2023-04-24T12:17:28;8.27;;;4.63;;
20711;SDS011;10517;50.742;4.224;2023-04-24T12:19:59;8.32;;;4.90;;
20711;SDS011;10517;50.742;4.224;2023-04-24T12:25:12;7.15;;;3.78;;
20711;SDS011;10517;50.742;4.224;2023-04-24T12:27:38;7.72;;;4.53;;
20711;SDS011;10517;50.742;4.224;2023-04-24T12:30:05;6.20;;;4.25;;
20711;SDS011;10517;50.742;4.224;2023-04-24T12:32:34;7.32;;;4.93;;
20711;SDS011;10517;50.742;4.224;2023-04-24T12:35:00;5.68;;;3.05;;
20711;SDS011;10517;50.742;4.224;2023-04-24T12:37:26;9.07;;;4.38;;
20711;SDS011;10517;50.742;4.224;2023-04-24T12:40:10;6.28;;;3.58;;
20711;SDS011;10517;50.742;4.224;2023-04-24T12:45:13;13.10;;;4.20;;
20711;SDS011;10517;50.742;4.224;2023-04-24T12:47:39;9.65;;;4.13;;
20711;SDS011;10517;50.742;4.224;2023-04-24T12:50:07;3.95;;;2.65;;
20711;SDS011;10517;50.742;4.224;2023-04-24T12:52:33;5.38;;;3.33;;
20711;SDS011;10517;50.742;4.224;2023-04-24T12:55:00;8.02;;;4.13;;
20711;SDS011;10517;50.742;4.224;2023-04-24T12:57:26;6.85;;;3.83;;
20711;SDS011;10517;50.742;4.224;2023-04-24T12:59:54;5.60;;;4.18;;
20711;SDS011;10517;50.742;4.224;2023-04-24T13:02:24;7.90;;;4.07;;
20711;SDS011;10517;50.742;4.224;2023-04-24T13:04:52;10.32;;;4.72;;
20711;SDS011;10517;50.742;4.224;2023-04-24T13:07:17;4.82;;;3.58;;
20711;SDS011;10517;50.742;4.224;2023-04-24T13:09:44;6.95;;;3.88;;
20711;SDS011;10517;50.742;4.224;2023-04-24T13:12:10;8.50;;;4.03;;
20711;SDS011;10517;50.742;4.224;2023-04-24T13:14:36;4.45;;;3.50;;
20711;SDS011;10517;50.742;4.224;2023-04-24T13:17:03;4.53;;;3.17;;
20711;SDS011;10517;50.742;4.224;2023-04-24T13:19:29;4.53;;;3.28;;
20711;SDS011;10517;50.742;4.224;2023-04-24T13:22:00;6.13;;;3.92;;
20711;SDS011;10517;50.742;4.224;2023-04-24T13:24:26;8.25;;;3.70;;
20711;SDS011;10517;50.742;4.224;2023-04-24T13:26:52;9.15;;;4.38;;
20711;SDS011;10517;50.742;4.224;2023-04-24T13:29:18;9.30;;;4.20;;
20711;SDS011;10517;50.742;4.224;2023-04-24T13:31:44;7.50;;;3.22;;
20711;SDS011;10517;50.742;4.224;2023-04-24T13:34:10;6.35;;;2.78;;
20711;SDS011;10517;50.742;4.224;2023-04-24T13:36:36;9.00;;;3.38;;
20711;SDS011;10517;50.742;4.224;2023-04-24T13:39:02;7.68;;;2.85;;
20711;SDS011;10517;50.742;4.224;2023-04-24T13:41:29;3.30;;;2.53;;
20711;SDS011;10517;50.742;4.224;2023-04-24T13:43:55;7.30;;;3.50;;
20711;SDS011;10517;50.742;4.224;2023-04-24T13:46:21;5.88;;;2.60;;
20711;SDS011;10517;50.742;4.224;2023-04-24T13:48:47;4.70;;;2.67;;
20711;SDS011;10517;50.742;4.224;2023-04-24T13:51:12;8.10;;;2.58;;
20711;SDS011;10517;50.742;4.224;2023-04-24T13:53:38;4.60;;;2.78;;
20711;SDS011;10517;50.742;4.224;2023-04-24T13:56:04;4.53;;;2.50;;
20711;SDS011;10517;50.742;4.224;2023-04-24T13:58:31;4.63;;;2.58;;
20711;SDS011;10517;50.742;4.224;2023-04-24T14:00:57;3.88;;;1.77;;
20711;SDS011;10517;50.742;4.224;2023-04-24T14:03:23;5.20;;;2.72;;
20711;SDS011;10517;50.742;4.224;2023-04-24T14:05:48;4.55;;;2.10;;
20711;SDS011;10517;50.742;4.224;2023-04-24T14:08:14;6.05;;;1.75;;
20711;SDS011;10517;50.742;4.224;2023-04-24T14:10:40;3.20;;;2.08;;
20711;SDS011;10517;50.742;4.224;2023-04-24T14:13:07;5.00;;;3.28;;
20711;SDS011;10517;50.742;4.224;2023-04-24T14:15:33;2.80;;;1.50;;
20711;SDS011;10517;50.742;4.224;2023-04-24T14:18:00;2.30;;;1.80;;
20711;SDS011;10517;50.742;4.224;2023-04-24T14:20:26;2.63;;;1.77;;
20711;SDS011;10517;50.742;4.224;2023-04-24T14:22:52;4.63;;;1.88;;
20711;SDS011;10517;50.742;4.224;2023-04-24T14:25:18;5.07;;;2.38;;
20711;SDS011;10517;50.742;4.224;2023-04-24T14:27:44;3.08;;;2.05;;
20711;SDS011;10517;50.742;4.224;2023-04-24T14:30:10;2.47;;;1.75;;
20711;SDS011;10517;50.742;4.224;2023-04-24T14:32:38;4.93;;;1.73;;
20711;SDS011;10517;50.742;4.224;2023-04-24T14:35:05;3.47;;;1.98;;
20711;SDS011;10517;50.742;4.224;2023-04-24T14:37:31;3.95;;;1.80;;
20711;SDS011;10517;50.742;4.224;2023-04-24T14:39:57;5.75;;;2.00;;
20711;SDS011;10517;50.742;4.224;2023-04-24T14:42:23;2.63;;;1.60;;
20711;SDS011;10517;50.742;4.224;2023-04-24T14:44:48;2.05;;;1.77;;
20711;SDS011;10517;50.742;4.224;2023-04-24T14:47:14;4.38;;;1.80;;
20711;SDS011;10517;50.742;4.224;2023-04-24T14:49:42;5.65;;;2.33;;
20711;SDS011;10517;50.742;4.224;2023-04-24T14:52:08;6.00;;;1.70;;
20711;SDS011;10517;50.742;4.224;2023-04-24T14:54:35;5.88;;;1.38;;
20711;SDS011;10517;50.742;4.224;2023-04-24T14:57:00;4.68;;;1.50;;
20711;SDS011;10517;50.742;4.224;2023-04-24T14:59:27;4.57;;;1.80;;
20711;SDS011;10517;50.742;4.224;2023-04-24T15:01:53;3.83;;;1.65;;
20711;SDS011;10517;50.742;4.224;2023-04-24T15:04:23;6.47;;;2.28;;
20711;SDS011;10517;50.742;4.224;2023-04-24T15:06:50;1.90;;;1.58;;
20711;SDS011;10517;50.742;4.224;2023-04-24T15:09:16;1.70;;;1.60;;